Time;durP1;ratioP1;P1;durP2;ratioP2;P2;SDS_P1;SDS_P2;PMS_P1;PMS_P2;Temp;Humidity;BMP_temperature;BMP_pressure;BME280_temperature;BME280_humidity;BME280_pressure;Samples;Min_cycle;Max_cycle;Signal;HPM_P1;HPM_P2
2022/03/24 00:00:30;;;;;;;96.22;45.12;;;;;;;2.46;47.79;101456.25;2026782;87;32362;-69
2022/03/24 00:03:33;;;;;;;90.40;43.48;;;;;;;2.45;47.74;101460.19;2009766;87;27748;-73
2022/03/24 00:06:35;;;;;;;97.78;43.55;;;;;;;2.39;47.87;101452.70;2063794;86;27755;-72
2022/03/24 00:09:37;;;;;;;89.52;43.73;;;;;;;2.36;47.98;101454.02;2063258;86;28787;-69
2022/03/24 00:12:39;;;;;;;98.60;46.18;;;;;;;2.33;47.94;101448.71;2063461;86;31639;-68
2022/03/24 00:15:41;;;;;;;90.80;44.03;;;;;;;2.30;48.13;101453.12;2063210;86;33093;-68
2022/03/24 00:18:42;;;;;;;94.85;44.25;;;;;;;2.27;48.11;101447.36;2063306;86;29337;-78
2022/03/24 00:21:45;;;;;;;85.77;42.78;;;;;;;2.25;48.32;101458.36;2062537;85;27656;-73
2022/03/24 00:24:47;;;;;;;85.15;43.13;;;;;;;2.22;48.50;101459.70;2037697;86;28840;-71
2022/03/24 00:27:49;;;;;;;82.92;41.77;;;;;;;2.18;48.51;101460.56;2061515;86;31030;-70
2022/03/24 00:30:51;;;;;;;84.97;39.95;;;;;;;2.12;48.64;101458.33;2065743;85;33172;-73
2022/03/24 00:33:53;;;;;;;86.17;41.05;;;;;;;2.07;48.71;101456.09;2077809;84;29463;-73
2022/03/24 00:36:55;;;;;;;84.85;42.08;;;;;;;2.03;48.75;101449.47;2062986;86;27714;-74
2022/03/24 00:39:56;;;;;;;81.85;40.90;;;;;;;1.97;49.00;101448.59;2063098;86;28615;-70
2022/03/24 00:42:59;;;;;;;85.32;42.88;;;;;;;1.93;49.12;101448.13;2063275;86;31175;-74
2022/03/24 00:46:00;;;;;;;80.67;41.83;;;;;;;1.88;49.13;101446.34;2062953;86;33754;-70
2022/03/24 00:49:02;;;;;;;82.25;42.23;;;;;;;1.82;49.13;101448.06;2063125;86;29332;-72
2022/03/24 00:52:09;;;;;;;84.95;39.95;;;;;;;1.78;49.33;101450.69;2063445;86;27632;-74
2022/03/24 00:55:17;;;;;;;87.72;42.03;;;;;;;1.75;49.40;101449.34;2062961;86;29662;-71
2022/03/24 00:58:19;;;;;;;89.90;46.28;;;;;;;1.70;49.67;101445.36;2062890;86;31993;-72
2022/03/24 01:01:21;;;;;;;83.10;42.27;;;;;;;1.65;49.72;101445.34;2081098;84;33026;-76
2022/03/24 01:04:23;;;;;;;87.17;43.85;;;;;;;1.61;49.83;101451.48;2059939;85;30299;-73
2022/03/24 01:07:25;;;;;;;83.67;40.63;;;;;;;1.57;49.99;101451.45;2010981;88;27587;-70
2022/03/24 01:10:26;;;;;;;94.67;45.90;;;;;;;1.51;50.15;101445.25;2052656;86;28111;-76
2022/03/24 01:13:28;;;;;;;83.03;44.95;;;;;;;1.47;50.23;101445.23;2031477;87;31055;-74
2022/03/24 01:16:30;;;;;;;92.65;46.60;;;;;;;1.42;50.26;101444.30;2023247;86;32960;-73
2022/03/24 01:19:32;;;;;;;85.15;44.13;;;;;;;1.37;50.43;101446.92;2051186;86;29506;-73
2022/03/24 01:22:34;;;;;;;101.53;47.05;;;;;;;1.31;50.69;101449.50;2051227;86;27698;-76
2022/03/24 01:25:36;;;;;;;95.83;43.78;;;;;;;1.25;50.91;101448.13;2051952;86;28645;-74
2022/03/24 01:28:38;;;;;;;77.53;40.90;;;;;;;1.21;51.01;101445.49;2053060;85;31037;-75
2022/03/24 01:31:42;;;;;;;85.95;44.15;;;;;;;1.16;51.05;101447.20;1978663;90;33807;-71
2022/03/24 01:34:44;;;;;;;93.58;47.23;;;;;;;1.13;50.98;101445.85;2046640;86;28839;-71
2022/03/24 01:37:46;;;;;;;93.05;46.05;;;;;;;1.10;51.04;101444.95;2052110;86;27633;-70
2022/03/24 01:40:48;;;;;;;96.87;45.67;;;;;;;1.05;51.14;101451.06;2052134;86;28915;-78
2022/03/24 01:43:50;;;;;;;89.35;45.48;;;;;;;1.03;51.32;101451.94;2010159;87;32362;-73
2022/03/24 01:46:59;;;;;;;89.80;42.50;;;;;;;0.99;51.34;101452.77;2052833;86;33934;-71
2022/03/24 01:50:01;;;;;;;124.00;59.03;;;;;;;0.97;51.54;101450.14;2010639;88;29502;-76
2022/03/24 01:53:04;;;;;;;95.57;48.65;;;;;;;0.93;51.54;101444.38;2052918;86;27624;-74
2022/03/24 01:56:07;;;;;;;100.55;50.98;;;;;;;0.90;51.69;101455.80;2010654;88;28670;-71
2022/03/24 01:59:09;;;;;;;106.70;50.55;;;;;;;0.86;51.97;101449.14;2061634;85;31936;-77
2022/03/24 02:02:14;;;;;;;106.50;52.23;;;;;;;0.82;52.34;101453.51;2086891;85;32978;-77
2022/03/24 02:05:16;;;;;;;114.22;52.80;;;;;;;0.77;52.22;101445.11;2073385;84;30040;-69
2022/03/24 02:08:17;;;;;;;112.08;54.27;;;;;;;0.74;52.32;101443.34;2051366;86;27719;-72
2022/03/24 02:11:20;;;;;;;106.97;53.68;;;;;;;0.72;52.38;101444.63;2051079;86;29376;-74
2022/03/24 02:14:22;;;;;;;108.30;53.85;;;;;;;0.69;52.37;101445.03;2052394;86;31030;-70
2022/03/24 02:17:30;;;;;;;104.53;51.77;;;;;;;0.66;52.59;101447.64;2052269;86;32946;-69
2022/03/24 02:20:35;;;;;;;105.55;51.20;;;;;;;0.63;52.68;101452.45;2010527;88;29345;-70
2022/03/24 02:23:35;;;;;;;97.22;50.52;;;;;;;0.60;52.76;101451.97;2052575;86;28167;-73
2022/03/24 02:26:40;;;;;;;93.33;49.85;;;;;;;0.58;52.92;101455.02;2052226;86;29465;-71
2022/03/24 02:29:42;;;;;;;91.75;46.80;;;;;;;0.56;53.08;101459.84;2067234;85;31194;-73
2022/03/24 02:32:43;;;;;;;88.40;46.33;;;;;;;0.54;53.43;101452.34;2087165;85;33027;-72
2022/03/24 02:35:46;;;;;;;90.28;45.48;;;;;;;0.53;53.56;101457.16;2087050;85;30075;-71
2022/03/24 02:38:47;;;;;;;87.55;45.90;;;;;;;0.53;53.83;101454.11;2087498;85;27711;-75
2022/03/24 02:41:55;;;;;;;85.55;44.63;;;;;;;0.53;53.76;101462.44;2085475;85;28639;-74
2022/03/24 02:45:00;;;;;;;92.78;43.78;;;;;;;0.53;54.04;101463.34;2078209;85;31036;-71
2022/03/24 02:48:03;;;;;;;88.00;43.55;;;;;;;0.51;54.05;101467.71;2010735;88;33029;-71
2022/03/24 02:51:06;;;;;;;86.02;42.85;;;;;;;0.50;53.94;101469.02;2052925;86;29353;-76
2022/03/24 02:54:08;;;;;;;90.72;44.33;;;;;;;0.45;53.93;101465.89;2010811;88;27767;-73
2022/03/24 02:57:11;;;;;;;95.20;44.27;;;;;;;0.43;53.94;101471.58;2058483;86;28660;-75
2022/03/24 03:00:15;;;;;;;87.70;45.83;;;;;;;0.41;54.14;101469.80;2081711;85;32196;-74
2022/03/24 03:03:17;;;;;;;86.95;44.80;;;;;;;0.37;54.16;101478.09;2087029;85;32965;-73
2022/03/24 03:06:20;;;;;;;91.05;46.98;;;;;;;0.34;54.07;101467.95;2087086;84;29350;-76
2022/03/24 03:09:23;;;;;;;101.18;48.55;;;;;;;0.31;54.11;101471.45;2087363;85;27699;-71
2022/03/24 03:12:27;;;;;;;102.05;49.15;;;;;;;0.28;54.21;101472.27;2087385;85;28672;-74
2022/03/24 03:15:28;;;;;;;108.95;52.40;;;;;;;0.26;54.28;101477.95;2087314;85;31049;-70
2022/03/24 03:18:32;;;;;;;94.75;46.80;;;;;;;0.22;54.26;101474.86;2087517;85;32947;-77
2022/03/24 03:21:33;;;;;;;96.57;49.33;;;;;;;0.21;54.32;101478.77;2087009;85;30059;-76
2022/03/24 03:24:35;;;;;;;110.90;53.85;;;;;;;0.18;54.39;101478.31;2087543;85;27771;-70
2022/03/24 03:27:37;;;;;;;104.30;51.70;;;;;;;0.16;54.43;101477.85;2087339;85;28711;-70
2022/03/24 03:30:38;;;;;;;111.72;52.75;;;;;;;0.13;54.64;101475.62;2086457;85;31860;-72
2022/03/24 03:33:40;;;;;;;107.75;49.53;;;;;;;0.09;54.52;101480.41;2069691;85;33759;-70
2022/03/24 03:36:42;;;;;;;127.40;55.50;;;;;;;0.07;54.63;101479.48;2010652;87;29462;-70
2022/03/24 03:39:44;;;;;;;131.78;54.75;;;;;;;0.03;54.66;101477.67;2053129;86;27912;-74
2022/03/24 03:42:49;;;;;;;116.20;53.63;;;;;;;0.01;54.75;101483.35;2053035;86;28643;-73
2022/03/24 03:45:52;;;;;;;106.80;52.48;;;;;;;-0.03;54.85;101478.94;2052695;86;31068;-70
2022/03/24 03:48:54;;;;;;;112.83;55.05;;;;;;;-0.04;54.80;101482.43;2053012;86;33800;-76
2022/03/24 03:51:55;;;;;;;110.95;52.60;;;;;;;-0.06;54.98;101478.89;2053013;86;29382;-74
2022/03/24 03:54:57;;;;;;;121.80;56.77;;;;;;;-0.09;55.06;101483.69;2053153;86;27673;-69
2022/03/24 03:57:59;;;;;;;113.85;56.23;;;;;;;-0.11;55.08;101478.83;2030052;87;28881;-77
2022/03/24 04:01:02;;;;;;;107.40;54.13;;;;;;;-0.12;55.13;101478.79;2077603;85;30390;-71
2022/03/24 04:04:06;;;;;;;114.22;55.38;;;;;;;-0.15;55.14;101480.96;2010530;88;33064;-71
2022/03/24 04:07:09;;;;;;;130.15;56.18;;;;;;;-0.18;55.16;101490.13;2067983;84;29535;-74
2022/03/24 04:10:11;;;;;;;111.40;54.77;;;;;;;-0.19;55.17;101485.73;2071269;86;27704;-69
2022/03/24 04:13:13;;;;;;;125.60;58.35;;;;;;;-0.23;55.40;101490.08;2071273;86;29474;-68
2022/03/24 04:16:15;;;;;;;125.85;57.78;;;;;;;-0.25;55.47;101488.30;2027643;86;31024;-67
2022/03/24 04:19:16;;;;;;;126.87;58.30;;;;;;;-0.27;55.66;101492.20;2012803;88;32945;-71
2022/03/24 04:22:18;;;;;;;113.77;54.18;;;;;;;-0.29;55.69;101493.05;2069315;86;29330;-69
2022/03/24 04:25:21;;;;;;;117.28;56.30;;;;;;;-0.33;55.72;101500.91;2071192;86;27627;-67
2022/03/24 04:28:23;;;;;;;118.40;56.45;;;;;;;-0.34;55.84;101502.20;2076454;84;29843;-64
2022/03/24 04:31:25;;;;;;;112.15;55.48;;;;;;;-0.37;55.86;101500.84;2105938;84;30949;-64
2022/03/24 04:34:26;;;;;;;121.95;56.92;;;;;;;-0.39;55.89;101503.88;2077545;84;34184;-65
2022/03/24 04:37:28;;;;;;;125.97;55.63;;;;;;;-0.40;55.99;101508.69;2070032;86;29330;-66
2022/03/24 04:40:31;;;;;;;126.35;56.48;;;;;;;-0.41;56.03;101510.86;2071269;86;27620;-66
2022/03/24 04:43:34;;;;;;;121.55;56.42;;;;;;;-0.45;56.14;101512.58;2071237;86;28049;-67
2022/03/24 04:46:35;;;;;;;126.53;56.73;;;;;;;-0.46;56.24;101521.33;2030535;87;31863;-65
2022/03/24 04:49:37;;;;;;;114.82;58.15;;;;;;;-0.47;56.54;101515.16;1997841;89;32950;-66
2022/03/24 04:52:39;;;;;;;119.82;57.73;;;;;;;-0.48;56.52;101519.97;1996902;89;30098;-66
2022/03/24 04:55:42;;;;;;;124.20;57.40;;;;;;;-0.49;56.57;101523.46;2028792;86;27763;-67
2022/03/24 04:58:44;;;;;;;120.15;58.42;;;;;;;-0.48;56.66;101526.55;2056455;86;29487;-67
2022/03/24 05:01:46;;;;;;;116.28;56.83;;;;;;;-0.47;56.81;101527.01;2056489;86;30463;-66
2022/03/24 05:04:47;;;;;;;124.62;58.02;;;;;;;-0.45;56.77;101533.63;2056471;86;32993;-65
2022/03/24 05:07:49;;;;;;;126.97;57.90;;;;;;;-0.42;56.96;101538.95;2070842;85;29387;-65
2022/03/24 05:10:51;;;;;;;124.33;58.10;;;;;;;-0.39;57.02;101536.78;2017110;87;27640;-66
2022/03/24 05:13:53;;;;;;;127.60;59.90;;;;;;;-0.35;57.11;101537.30;2074789;85;28636;-65
2022/03/24 05:16:54;;;;;;;129.23;57.50;;;;;;;-0.29;57.05;101537.81;2082063;84;31034;-66
2022/03/24 05:19:56;;;;;;;126.45;60.60;;;;;;;-0.25;57.19;101538.33;2101342;84;32542;-65
2022/03/24 05:22:58;;;;;;;125.47;56.68;;;;;;;-0.20;57.28;101535.30;2075045;84;29315;-66
2022/03/24 05:26:01;;;;;;;115.85;56.08;;;;;;;-0.13;57.34;101541.13;2083278;84;27780;-64
2022/03/24 05:29:02;;;;;;;116.47;56.70;;;;;;;-0.05;57.44;101542.56;2109751;84;28642;-64
2022/03/24 05:32:06;;;;;;;113.30;55.33;;;;;;;0.04;57.51;101543.99;2109683;84;31003;-68
2022/03/24 05:35:09;;;;;;;118.15;57.78;;;;;;;0.13;57.61;101540.19;2109959;84;33797;-65
2022/03/24 05:38:11;;;;;;;125.50;58.83;;;;;;;0.26;57.67;101541.66;2110017;84;29332;-65
2022/03/24 05:41:13;;;;;;;123.95;57.85;;;;;;;0.38;57.72;101554.12;2110186;84;27678;-65
2022/03/24 05:44:15;;;;;;;132.43;59.73;;;;;;;0.49;57.65;101552.48;2110244;84;29300;-67
2022/03/24 05:47:17;;;;;;;114.72;59.00;;;;;;;0.64;57.76;101560.13;2109977;84;30525;-65
2022/03/24 05:50:18;;;;;;;117.17;59.70;;;;;;;0.77;57.72;101557.20;2109941;84;32949;-65
2022/03/24 05:53:20;;;;;;;119.85;57.95;;;;;;;0.90;57.66;101557.78;2110120;84;29322;-66
2022/03/24 05:56:22;;;;;;;121.15;60.83;;;;;;;1.04;57.80;101550.89;2097524;84;27793;-66
2022/03/24 05:59:24;;;;;;;121.20;60.25;;;;;;;1.21;57.83;101555.03;2075030;85;29493;-67
2022/03/24 06:02:26;;;;;;;123.78;61.30;;;;;;;1.38;57.89;101546.80;2048558;86;31025;-66
2022/03/24 06:05:28;;;;;;;122.17;59.63;;;;;;;1.56;57.78;101550.05;2073362;84;33640;-69
2022/03/24 06:08:30;;;;;;;123.18;61.23;;;;;;;1.74;57.79;101547.97;2010345;88;29389;-70
2022/03/24 06:11:36;;;;;;;124.78;61.23;;;;;;;1.94;57.63;101553.38;2053223;86;27737;-68
2022/03/24 06:14:40;;;;;;;124.97;63.15;;;;;;;2.16;57.67;101550.41;2010789;88;28703;-72
2022/03/24 06:17:42;;;;;;;124.25;62.25;;;;;;;2.48;57.68;101547.48;2053077;86;32157;-72
2022/03/24 06:20:44;;;;;;;130.20;63.85;;;;;;;2.89;57.48;101554.70;2010733;88;33904;-64
2022/03/24 06:23:46;;;;;;;151.27;66.55;;;;;;;3.34;57.26;101543.72;2053083;86;29374;-67
2022/03/24 06:26:48;;;;;;;138.37;67.10;;;;;;;3.82;56.73;101550.77;2026095;87;27628;-67
2022/03/24 06:29:50;;;;;;;119.15;62.65;;;;;;;4.32;56.27;101550.64;2087413;85;28688;-65
2022/03/24 06:32:52;;;;;;;111.97;57.25;;;;;;;4.81;55.66;101557.48;2078801;85;31911;-65
2022/03/24 06:35:54;;;;;;;91.70;51.92;;;;;;;5.33;55.12;101550.98;2052620;86;32978;-67
2022/03/24 06:38:56;;;;;;;92.47;53.28;;;;;;;5.88;54.05;101550.94;2011240;87;29549;-68
2022/03/24 06:41:58;;;;;;;94.87;52.62;;;;;;;6.39;53.45;101554.86;2053426;86;28236;-71
2022/03/24 06:45:00;;;;;;;96.63;51.70;;;;;;;6.92;52.75;101552.39;2053041;86;29483;-71
2022/03/24 06:48:02;;;;;;;90.12;49.15;;;;;;;7.40;52.01;101549.02;2053094;86;31018;-73
2022/03/24 06:51:04;;;;;;;79.65;45.85;;;;;;;7.85;51.35;101540.69;2010757;88;33760;-79
2022/03/24 06:54:06;;;;;;;72.58;44.60;;;;;;;8.33;50.80;101544.66;2053026;86;29355;-75
2022/03/24 06:57:08;;;;;;;78.10;46.33;;;;;;;8.81;50.02;101540.12;2029631;87;27640;-73
2022/03/24 07:00:12;;;;;;;81.75;46.68;;;;;;;9.21;49.36;101550.35;2087266;85;28698;-73
2022/03/24 07:03:14;;;;;;;79.30;47.43;;;;;;;9.60;48.43;101546.29;2070197;86;31722;-70
2022/03/24 07:06:16;;;;;;;72.70;42.67;;;;;;;9.98;48.33;101543.07;2056564;85;33015;-68
2022/03/24 07:09:18;;;;;;;78.95;45.83;;;;;;;10.37;47.55;101551.81;2051694;86;30256;-66
2022/03/24 07:12:23;;;;;;;72.58;44.42;;;;;;;10.70;46.84;101543.74;2052899;86;27697;-68
2022/03/24 07:15:25;;;;;;;;;;;;;;;10.94;46.51;101547.47;2055480;86;28651;-66
2022/03/24 07:18:27;;;;;;;73.55;45.45;;;;;;;11.28;45.53;101553.59;2053296;86;31730;-67
2022/03/24 07:21:35;;;;;;;78.92;45.38;;;;;;;11.46;45.36;101553.44;2053046;86;32978;-66
2022/03/24 07:24:47;;;;;;;74.40;44.33;;;;;;;11.76;44.92;101555.56;2053073;86;30152;-67
2022/03/24 07:27:53;;;;;;;72.10;44.75;;;;;;;11.98;44.33;101547.66;2079853;85;27587;-67
2022/03/24 07:31:19;;;;;;;70.17;43.35;;;;;;;12.23;43.36;101561.57;2034885;86;29521;-77
2022/03/24 07:34:25;;;;;;;86.42;46.13;;;;;;;12.57;43.80;101556.74;2052545;86;32005;-72
2022/03/24 07:37:31;;;;;;;78.00;46.23;;;;;;;13.05;43.34;101558.45;2025196;87;33043;-69
2022/03/24 07:40:40;;;;;;;68.92;42.13;;;;;;;13.42;42.75;101558.80;2028530;87;27734;-70
2022/03/24 07:43:48;;;;;;;68.52;42.17;;;;;;;13.68;42.13;101560.41;2002600;88;27619;-70
2022/03/24 07:46:50;;;;;;;72.12;41.60;;;;;;;13.91;41.40;101561.70;2001818;88;29549;-66
2022/03/24 07:49:53;;;;;;;70.30;42.05;;;;;;;14.15;41.31;101549.45;2003147;88;31077;-78
2022/03/24 07:52:55;;;;;;;71.65;43.10;;;;;;;14.61;40.78;101555.44;2004151;88;33855;-66
2022/03/24 07:55:58;;;;;;;72.62;43.38;;;;;;;14.95;40.14;101551.67;2012410;87;29324;-67
2022/03/24 07:59:00;;;;;;;71.95;42.60;;;;;;;15.12;39.00;101548.14;2005769;87;27765;-67
2022/03/24 08:02:02;;;;;;;78.80;44.38;;;;;;;15.24;39.40;101554.28;2052938;86;28645;-72
2022/03/24 08:05:05;;;;;;;67.45;41.88;;;;;;;15.40;38.94;101553.52;2010976;88;31181;-73
2022/03/24 08:08:10;;;;;;;69.07;41.37;;;;;;;15.53;38.55;101547.93;2065273;84;33016;-66
2022/03/24 08:11:12;;;;;;;67.53;41.98;;;;;;;15.82;37.63;101542.85;1998336;89;29386;-68
2022/03/24 08:14:16;;;;;;;64.35;39.90;;;;;;;16.15;37.47;101537.12;2007297;87;27246;-77
2022/03/24 08:17:18;;;;;;;61.08;40.73;;;;;;;16.45;37.08;101542.72;1996028;88;33257;-72
2022/03/24 08:20:20;;;;;;;64.80;41.37;;;;;;;16.68;36.57;101545.50;1986478;89;31063;-72
2022/03/24 08:23:22;;;;;;;54.25;38.70;;;;;;;16.78;36.68;101547.72;1986039;89;32960;-69
2022/03/24 08:26:24;;;;;;;60.70;40.40;;;;;;;16.91;36.39;101547.42;1983049;89;30143;-69
2022/03/24 08:29:25;;;;;;;62.25;41.35;;;;;;;17.07;35.53;101547.44;2050395;85;27829;-71
2022/03/24 08:32:27;;;;;;;60.60;40.38;;;;;;;17.03;35.05;101545.00;2038389;87;28576;-67
2022/03/24 08:35:29;;;;;;;66.07;40.43;;;;;;;17.02;35.25;101545.49;2038720;87;31012;-66
2022/03/24 08:38:31;;;;;;;61.77;40.73;;;;;;;16.96;34.85;101545.34;2038529;87;33550;-75
2022/03/24 08:41:32;;;;;;;61.35;41.83;;;;;;;16.80;34.14;101549.37;2038425;87;30113;-67
2022/03/24 08:44:36;;;;;;;67.17;42.33;;;;;;;16.58;34.48;101547.45;2037534;87;27840;-71
2022/03/24 08:47:39;;;;;;;60.25;41.53;;;;;;;16.35;34.29;101552.30;2038445;87;28698;-67
2022/03/24 08:50:41;;;;;;;66.42;42.45;;;;;;;16.20;34.35;101552.17;2069757;85;31197;-76
2022/03/24 08:53:43;;;;;;;63.95;43.38;;;;;;;15.92;33.95;101554.09;2075311;85;33769;-71
2022/03/24 08:56:45;;;;;;;63.52;41.15;;;;;;;15.62;33.74;101550.64;2066371;84;29439;-75
2022/03/24 08:59:48;;;;;;;71.12;41.53;;;;;;;15.38;34.26;101555.45;2038600;87;27785;-75
2022/03/24 09:02:57;;;;;;;75.25;41.85;;;;;;;15.06;34.21;101557.42;2038462;87;29621;-69
2022/03/24 09:05:56;;;;;;;61.65;40.17;;;;;;;15.06;34.21;101557.42;1983994;88;32208;-72
2022/03/24 09:08:58;;;;;;;69.65;41.08;;;;;;;15.03;33.95;101558.91;2001979;88;33085;-72
2022/03/24 09:11:59;;;;;;;61.30;40.85;;;;;;;14.89;34.10;101560.94;1988762;89;29617;-75
2022/03/24 09:15:05;;;;;;;67.10;40.80;;;;;;;14.91;34.36;101564.41;2003297;88;27949;-77
2022/03/24 09:18:06;;;;;;;63.23;39.78;;;;;;;14.85;33.78;101562.89;2002407;88;29528;-72
2022/03/24 09:21:11;;;;;;;64.32;38.75;;;;;;;14.72;33.29;101565.77;1993740;88;32077;-77
2022/03/24 09:24:14;;;;;;;64.10;38.35;;;;;;;14.46;33.38;101569.63;2005270;88;32975;-77
2022/03/24 09:27:16;;;;;;;67.10;38.65;;;;;;;14.36;33.73;101566.02;2034632;87;29230;-70
2022/03/24 09:30:19;;;;;;;66.40;38.70;;;;;;;14.40;33.99;101561.36;2038059;87;27752;-66
2022/03/24 09:33:23;;;;;;;73.42;40.00;;;;;;;14.46;34.08;101572.33;2037961;87;28659;-75
2022/03/24 09:36:26;;;;;;;64.53;39.03;;;;;;;14.45;33.77;101572.81;1974084;89;31121;-76
2022/03/24 09:39:30;;;;;;;64.85;38.35;;;;;;;14.49;33.98;101569.50;1931124;92;34410;-67
2022/03/24 09:42:33;;;;;;;59.48;38.85;;;;;;;14.48;33.38;101570.44;1943907;91;29204;-74
2022/03/24 09:45:36;;;;;;;60.30;36.75;;;;;;;14.46;33.79;101567.83;1965122;90;27834;-76
2022/03/24 09:48:41;;;;;;;58.00;38.58;;;;;;;14.51;33.81;101569.82;1964561;90;28848;-76
2022/03/24 09:51:44;;;;;;;57.15;36.35;;;;;;;14.59;33.78;101571.70;1965252;90;31042;-78
2022/03/24 09:54:47;;;;;;;59.18;37.28;;;;;;;14.70;33.41;101568.55;1966219;89;33856;-76
2022/03/24 09:57:51;;;;;;;65.50;38.98;;;;;;;14.77;33.93;101562.84;1993154;89;28297;-74
2022/03/24 10:00:53;;;;;;;62.05;36.63;;;;;;;14.84;33.43;101561.14;1997427;87;27895;-66
2022/03/24 10:04:10;;;;;;;64.62;39.15;;;;;;;14.86;33.32;101551.15;1994085;89;28731;-71
2022/03/24 10:07:12;;;;;;;63.78;37.15;;;;;;;14.93;33.32;101558.48;1996044;88;31063;-69
2022/03/24 10:10:27;;;;;;;57.25;36.95;;;;;;;14.94;33.23;101558.87;1975158;90;33061;-72
2022/03/24 10:13:49;;;;;;;55.88;35.10;;;;;;;14.85;32.99;101563.38;1991950;89;29414;-69
2022/03/24 10:16:51;;;;;;;66.28;36.88;;;;;;;14.81;33.13;101558.58;1968092;90;28377;-66
2022/03/24 10:20:08;;;;;;;62.30;36.55;;;;;;;14.80;33.04;101561.36;1960459;90;28648;-67
2022/03/24 10:23:12;;;;;;;62.00;36.38;;;;;;;14.79;32.77;101561.84;1914630;93;31957;-68
2022/03/24 10:26:14;;;;;;;32.77;21.53;;;;;;;14.70;32.08;101558.22;1950134;90;33160;-68
2022/03/24 10:29:20;;;;;;;32.78;15.88;;;;;;;14.58;31.02;101552.88;1955557;90;29321;-68
2022/03/24 10:32:28;;;;;;;32.05;17.00;;;;;;;14.55;30.36;101549.86;1940890;91;27732;-67
2022/03/24 10:35:30;;;;;;;26.57;15.78;;;;;;;14.55;30.36;101549.86;1960486;90;29439;-70
2022/03/24 10:38:34;;;;;;;29.00;16.07;;;;;;;14.57;29.79;101550.67;1955894;88;31228;-72
2022/03/24 10:41:39;;;;;;;45.58;23.83;;;;;;;14.64;30.20;101546.35;2015561;88;32973;-67
2022/03/24 10:45:12;;;;;;;40.80;24.02;;;;;;;14.69;30.20;101542.52;2016482;88;33872;-66
2022/03/24 10:48:13;;;;;;;31.75;18.57;;;;;;;14.73;30.59;101546.80;2016738;88;27700;-68
2022/03/24 10:51:31;;;;;;;36.38;19.15;;;;;;;14.77;29.59;101532.72;2016409;88;28582;-67
2022/03/24 10:54:49;;;;;;;33.75;19.92;;;;;;;14.83;29.89;101537.80;2016623;86;31053;-68
2022/03/24 10:57:50;;;;;;;30.57;18.57;;;;;;;14.80;29.23;101530.34;2049114;86;33817;-69
2022/03/24 11:00:57;;;;;;;46.05;22.30;;;;;;;14.74;28.75;101542.30;2041764;86;30160;-68
2022/03/24 11:03:58;;;;;;;37.78;21.48;;;;;;;14.68;29.23;101534.03;2016614;88;27771;-73
2022/03/24 11:07:00;;;;;;;37.63;21.35;;;;;;;14.72;29.81;101532.05;2046865;86;28691;-68
2022/03/24 11:10:11;;;;;;;41.05;24.60;;;;;;;14.79;29.81;101530.83;2021898;87;30995;-70
2022/03/24 11:13:22;;;;;;;41.98;24.50;;;;;;;14.84;30.05;101532.80;2051837;86;33963;-66
2022/03/24 11:16:27;;;;;;;42.93;24.37;;;;;;;14.86;29.32;101524.66;2038399;86;29341;-67
2022/03/24 11:19:32;;;;;;;44.20;25.97;;;;;;;14.84;29.66;101526.55;2052109;86;28277;-70
2022/03/24 11:23:00;;;;;;;44.27;25.90;;;;;;;14.84;29.91;101516.62;2052946;86;28107;-67
2022/03/24 11:26:04;;;;;;;42.75;25.95;;;;;;;14.79;29.81;101512.40;2053675;85;31937;-73
2022/03/24 11:29:09;;;;;;;43.20;25.20;;;;;;;14.74;29.71;101512.63;2009992;88;32981;-69
2022/03/24 11:32:13;;;;;;;41.60;25.40;;;;;;;14.73;29.75;101511.73;2051150;86;29344;-67
2022/03/24 11:35:15;;;;;;;38.40;24.37;;;;;;;14.73;29.96;101513.57;2051118;86;27738;-69
2022/03/24 11:38:20;;;;;;;41.60;23.67;;;;;;;14.76;29.68;101505.80;2052475;86;28766;-67
2022/03/24 11:41:41;;;;;;;46.20;23.00;;;;;;;14.79;29.79;101502.50;2010507;87;31925;-66
2022/03/24 11:44:54;;;;;;;38.65;22.02;;;;;;;14.82;29.85;101505.02;2004715;88;33000;-72
2022/03/24 11:48:08;;;;;;;32.45;16.65;;;;;;;14.85;29.54;101499.97;2004508;88;29339;-66
2022/03/24 11:51:23;;;;;;;28.47;17.27;;;;;;;14.88;27.80;101512.83;1973264;90;27788;-66
2022/03/24 11:54:36;;;;;;;30.37;18.57;;;;;;;14.86;28.12;101505.77;1996329;87;29626;-66
2022/03/24 11:57:38;;;;;;;22.13;14.45;;;;;;;14.79;27.91;101478.67;2003659;88;31043;-74
2022/03/24 12:00:40;;;;;;;25.92;13.78;;;;;;;14.83;27.75;101497.82;2003081;88;34066;-71
2022/03/24 12:03:50;;;;;;;33.30;15.95;;;;;;;14.84;27.68;101488.78;2003786;88;29354;-68
2022/03/24 12:06:53;;;;;;;25.80;14.95;;;;;;;14.86;27.96;101487.75;2004805;88;27732;-70
2022/03/24 12:10:06;;;;;;;26.87;14.70;;;;;;;14.89;27.87;101484.91;2012660;87;28656;-74
2022/03/24 12:13:21;;;;;;;29.05;14.85;;;;;;;14.89;27.33;101480.00;1981335;89;31827;-73
2022/03/24 12:16:25;;;;;;;35.10;17.50;;;;;;;14.87;27.64;101478.70;1981932;89;32999;-70
2022/03/24 12:19:50;;;;;;;41.03;18.60;;;;;;;14.86;27.56;101482.34;1982101;89;29353;-71
2022/03/24 12:22:58;;;;;;;27.70;17.62;;;;;;;14.87;27.66;101485.45;1982129;89;27645;-73
2022/03/24 12:26:10;;;;;;;29.20;17.77;;;;;;;14.87;27.70;101479.20;2000597;88;28788;-71
2022/03/24 12:29:16;;;;;;;29.85;16.37;;;;;;;14.87;27.56;101474.66;2023164;86;31048;-67
2022/03/24 12:32:19;;;;;;;27.58;14.05;;;;;;;14.87;27.50;101468.41;2018640;87;32972;-68
2022/03/24 12:35:48;;;;;;;27.05;14.63;;;;;;;14.87;27.08;101465.70;1984847;88;30131;-70
2022/03/24 12:38:55;;;;;;;28.07;13.53;;;;;;;14.85;26.90;101462.20;2013655;88;27846;-73
2022/03/24 12:42:08;;;;;;;26.35;14.00;;;;;;;14.85;27.16;101467.11;2014000;87;28676;-71
2022/03/24 12:45:13;;;;;;;24.60;13.88;;;;;;;14.90;27.32;101465.53;2012702;87;31112;-69
2022/03/24 12:48:15;;;;;;;;;;;;;;;14.92;27.02;101465.47;2001364;88;33005;-72
2022/03/24 12:51:28;;;;;;;24.18;12.65;;;;;;;14.94;25.84;101461.73;2013889;87;29464;-68
2022/03/24 12:54:57;;;;;;;25.05;13.58;;;;;;;14.93;26.40;101458.64;1944322;90;27863;-71
2022/03/24 12:58:21;;;;;;;26.10;13.85;;;;;;;14.92;26.37;101461.42;1944055;91;29691;-74
2022/03/24 13:01:26;;;;;;;23.15;13.85;;;;;;;14.93;26.00;101451.89;1930806;91;31075;-72
2022/03/24 13:04:28;;;;;;;26.65;14.05;;;;;;;14.94;25.41;101449.59;1916795;91;32977;-70
2022/03/24 13:07:30;;;;;;;24.05;13.75;;;;;;;14.89;25.77;101447.63;1943178;91;29467;-72
2022/03/24 13:10:33;;;;;;;24.80;11.83;;;;;;;14.91;26.13;101444.83;1996679;88;27784;-68
2022/03/24 13:13:51;;;;;;;22.35;10.93;;;;;;;14.91;25.77;101445.69;1976847;90;29511;-74
2022/03/24 13:17:05;;;;;;;18.95;12.40;;;;;;;14.90;25.14;101438.55;1967485;90;31161;-67
2022/03/24 13:20:09;;;;;;;20.97;12.65;;;;;;;14.88;25.71;101439.98;1880699;94;33077;-72
2022/03/24 13:23:12;;;;;;;15.45;10.98;;;;;;;14.93;25.85;101436.19;1886192;94;29355;-73
2022/03/24 13:26:15;;;;;;;21.80;11.15;;;;;;;14.92;25.03;101432.60;1906157;92;27819;-74
2022/03/24 13:29:16;;;;;;;19.23;8.80;;;;;;;14.96;25.30;101434.70;1914077;92;29222;-76
2022/03/24 13:32:23;;;;;;;13.40;8.53;;;;;;;15.00;24.89;101428.17;1914852;92;31049;-70
2022/03/24 13:35:26;;;;;;;16.97;9.53;;;;;;;14.98;24.69;101432.77;1915312;92;32921;-72
2022/03/24 13:38:28;;;;;;;25.88;13.35;;;;;;;15.00;25.39;101425.47;1915178;92;29395;-67
2022/03/24 13:41:31;;;;;;;21.55;12.05;;;;;;;15.02;25.21;101429.86;1899435;92;27834;-68
2022/03/24 13:44:33;;;;;;;20.43;11.65;;;;;;;15.01;25.29;101415.97;1888235;91;29453;-69
2022/03/24 13:47:35;;;;;;;25.32;15.43;;;;;;;15.01;25.46;101418.67;1937602;91;31121;-74
2022/03/24 13:50:40;;;;;;;25.45;15.05;;;;;;;15.03;25.38;101419.92;1884146;93;32994;-67
2022/03/24 13:53:42;;;;;;;21.97;14.30;;;;;;;15.02;25.27;101409.63;1885937;94;30378;-69
2022/03/24 13:56:43;;;;;;;22.35;12.88;;;;;;;15.01;25.35;101405.17;1941634;87;27788;-68
2022/03/24 13:59:52;;;;;;;19.35;11.95;;;;;;;15.02;25.22;101404.69;2040386;86;29854;-68